This is the latest recevied weather packets stored in our database for station/object K8CWG. If no packets are shown the sender has not sent any weather packets the latest 10 day(s).
| Time | Temp. | Humidity | Pressure | Rain* | Wind** | Luminosity | Snow |
|---|---|---|---|---|---|---|---|
| 1777642201 | 9.44° C | 75% | 1011.3 hPa | 0 mm | - | - | - |
| 1777641302 | 8.89° C | 76% | 1011.2 hPa | 0 mm | - | - | - |
| 1777640402 | 8.89° C | 77% | 1011.2 hPa | 0 mm | - | - | - |
| 1777638601 | 8.33° C | 77% | 1011.5 hPa | 0 mm | - | - | - |
| 1777637701 | 8.33° C | 73% | 1011.6 hPa | 0 mm | - | - | - |
| 1777636802 | 8.33° C | 74% | 1011.5 hPa | 0 mm | - | - | - |
| 1777635001 | 8.33° C | 73% | 1011.5 hPa | 0 mm | - | - | - |
| 1777634102 | 8.33° C | 73% | 1011.4 hPa | 0 mm | - | - | - |
| 1777633202 | 7.78° C | 73% | 1011.4 hPa | 0 mm | - | - | - |
| 1777631401 | 7.78° C | 74% | 1011.5 hPa | 0 mm | - | - | - |
| 1777630501 | 7.78° C | 73% | 1011.5 hPa | 0 mm | - | - | - |
| 1777629607 | 7.22° C | 74% | 1011.7 hPa | 0 mm | - | - | - |
| 1777626902 | 6.67° C | 76% | 1012.2 hPa | 0 mm | - | - | - |
| 1777626002 | 6.67° C | 76% | 1012.5 hPa | 0 mm | - | - | - |
| 1777623301 | 6.11° C | 78% | 1012.6 hPa | 0 mm | - | - | - |
| 1777622407 | 6.67° C | 76% | 1012.7 hPa | 0 mm | - | - | - |
| 1777621501 | 6.67° C | 77% | 1012.7 hPa | 0 mm | - | - | - |
| 1777620601 | 6.67° C | 77% | 1012.5 hPa | 0 mm | - | - | - |
| 1777619701 | 6.67° C | 78% | 1012.7 hPa | 0 mm | - | - | - |
| 1777618802 | 6.11° C | 81% | 1012.8 hPa | 0 mm | - | - | - |
| 1777615203 | 5.56° C | 87% | 1013.5 hPa | 0 mm | - | - | - |
| 1777611605 | 6.11° C | 81% | 1013.9 hPa | 0 mm | - | - | - |
| 1777610702 | 6.67° C | 81% | 1013.8 hPa | 0 mm | - | - | - |
| 1777609802 | 6.11° C | 82% | 1013.3 hPa | 0 mm | - | - | - |
| 1777608901 | 6.11° C | 85% | 1013.9 hPa | 0 mm | - | - | - |
* Rain latest hour (hover to see other rain measurements)
** Current wind speed in m/s (hover to see current wind gust speed)